KLM271Y LFBO-EHAM
Flight info
| Callsign | KLM271Y |
|---|---|
| Flight time | 1h 24m |
| Altitude | 34000 |
| Route | FISTO DCT PERIG DCT ADABI DCT BOKNO UN858 VANAD UN874 BAMES UT191 PODEM UN873 BAZOS DCT LUMIL DCT BELOB UY873 DENUT |
| Aircraft | A319/M-SDE3FGHIRWY/LB1 |
Departure
| Time | 2026-05-04 06:46 |
|---|---|
| Airport | Toulouse-Blagnac Airport (LFBO) |
Arrival
| Time | 2026-05-04 08:10 |
|---|---|
| Airport | Amsterdam Airport Schiphol (EHAM) |
| Time | Latitude | Longitude | Altitude | Speed | Heading |
|---|---|---|---|---|---|
| 2026-05-04 06:17 | 43.62936 | 1.37337 | 503 ft | 0 kts | 71° |
| 2026-05-04 06:36 | 43.62934 | 1.37329 | 502 ft | 4 kts | 70° |
| 2026-05-04 06:37 | 43.62926 | 1.37294 | 502 ft | 4 kts | 69° |
| 2026-05-04 06:37 | 43.62912 | 1.37264 | 502 ft | 4 kts | 27° |
| 2026-05-04 06:37 | 43.62893 | 1.37262 | 502 ft | 1 kts | 323° |
| 2026-05-04 06:37 | 43.62892 | 1.37262 | 502 ft | 0 kts | 323° |
| 2026-05-04 06:40 | 43.62908 | 1.37245 | 502 ft | 6 kts | 321° |
| 2026-05-04 06:40 | 43.62964 | 1.37187 | 502 ft | 14 kts | 322° |
| 2026-05-04 06:41 | 43.63004 | 1.37059 | 502 ft | 20 kts | 247° |
| 2026-05-04 06:41 | 43.62950 | 1.36921 | 502 ft | 16 kts | 278° |
| 2026-05-04 06:41 | 43.63040 | 1.36798 | 502 ft | 21 kts | 322° |
| 2026-05-04 06:41 | 43.63163 | 1.36670 | 501 ft | 23 kts | 323° |
| 2026-05-04 06:42 | 43.63300 | 1.36528 | 500 ft | 26 kts | 323° |
| 2026-05-04 06:42 | 43.63452 | 1.36373 | 500 ft | 28 kts | 323° |
| 2026-05-04 06:42 | 43.63614 | 1.36204 | 499 ft | 31 kts | 322° |
| 2026-05-04 06:44 | 43.64515 | 1.34827 | 497 ft | 23 kts | 238° |
| 2026-05-04 06:44 | 43.64428 | 1.34661 | 497 ft | 13 kts | 236° |
| 2026-05-04 06:44 | 43.64352 | 1.34661 | 496 ft | 1 kts | 143° |
| 2026-05-04 06:45 | 43.64300 | 1.34716 | 494 ft | 34 kts | 142° |
| 2026-05-04 06:45 | 43.63945 | 1.35083 | 500 ft | 92 kts | 144° |
| 2026-05-04 06:45 | 43.63296 | 1.35755 | 501 ft | 140 kts | 143° |
| 2026-05-04 06:46 | 43.62394 | 1.36696 | 520 ft | 182 kts | 141° |
| 2026-05-04 06:46 | 43.61369 | 1.37641 | 1231 ft | 169 kts | 157° |
| 2026-05-04 06:46 | 43.60220 | 1.37765 | 1851 ft | 172 kts | 198° |
| 2026-05-04 06:46 | 43.59302 | 1.36717 | 2424 ft | 180 kts | 234° |
| 2026-05-04 06:48 | 43.67143 | 1.30746 | 6765 ft | 280 kts | 2° |
| 2026-05-04 06:48 | 43.69101 | 1.30780 | 7603 ft | 284 kts | 358° |
| 2026-05-04 06:49 | 43.71090 | 1.30684 | 8473 ft | 288 kts | 356° |
| 2026-05-04 06:50 | 43.87367 | 1.28946 | 12115 ft | 382 kts | 354° |
| 2026-05-04 06:51 | 43.90029 | 1.28667 | 12786 ft | 386 kts | 354° |
| 2026-05-04 06:51 | 43.92719 | 1.28389 | 13452 ft | 390 kts | 354° |
| 2026-05-04 06:51 | 43.95440 | 1.28111 | 14060 ft | 394 kts | 354° |
| 2026-05-04 06:51 | 43.98185 | 1.27825 | 14638 ft | 398 kts | 354° |
| 2026-05-04 06:52 | 44.00963 | 1.27531 | 15208 ft | 402 kts | 353° |
| 2026-05-04 06:52 | 44.03773 | 1.27231 | 15779 ft | 407 kts | 353° |
| 2026-05-04 06:52 | 44.06608 | 1.26931 | 16343 ft | 411 kts | 353° |
| 2026-05-04 06:52 | 44.09480 | 1.26626 | 16924 ft | 415 kts | 353° |
| 2026-05-04 06:53 | 44.12383 | 1.26317 | 17508 ft | 420 kts | 353° |
| 2026-05-04 06:53 | 44.15268 | 1.26011 | 18077 ft | 424 kts | 353° |
| 2026-05-04 06:53 | 44.18229 | 1.25698 | 18597 ft | 428 kts | 353° |
| 2026-05-04 06:53 | 44.21216 | 1.25380 | 19086 ft | 432 kts | 353° |
| 2026-05-04 06:54 | 44.24230 | 1.25057 | 19571 ft | 436 kts | 353° |
| 2026-05-04 06:54 | 44.27267 | 1.24730 | 20055 ft | 440 kts | 353° |
| 2026-05-04 06:54 | 44.30341 | 1.24403 | 20523 ft | 444 kts | 353° |
| 2026-05-04 06:54 | 44.33437 | 1.24078 | 20970 ft | 448 kts | 353° |
| 2026-05-04 06:55 | 44.36555 | 1.23749 | 21407 ft | 452 kts | 353° |
| 2026-05-04 06:55 | 44.39701 | 1.23412 | 21841 ft | 455 kts | 352° |
| 2026-05-04 06:55 | 44.42869 | 1.23071 | 22256 ft | 458 kts | 352° |
| 2026-05-04 06:55 | 44.46049 | 1.22599 | 22678 ft | 459 kts | 347° |
| 2026-05-04 06:56 | 44.49154 | 1.21562 | 23065 ft | 459 kts | 340° |
| 2026-05-04 06:57 | 44.71147 | 1.12968 | 25573 ft | 477 kts | 341° |
| 2026-05-04 06:58 | 44.74306 | 1.11729 | 25918 ft | 479 kts | 341° |
| 2026-05-04 06:58 | 44.77522 | 1.10460 | 26243 ft | 481 kts | 341° |
| 2026-05-04 06:58 | 44.80755 | 1.09180 | 26562 ft | 483 kts | 341° |
| 2026-05-04 06:58 | 44.84006 | 1.07896 | 26885 ft | 486 kts | 341° |
| 2026-05-04 06:59 | 44.87275 | 1.06612 | 27196 ft | 488 kts | 341° |
| 2026-05-04 06:59 | 44.90550 | 1.05325 | 27497 ft | 491 kts | 341° |
| 2026-05-04 06:59 | 44.93852 | 1.04030 | 27787 ft | 493 kts | 341° |
| 2026-05-04 06:59 | 44.97166 | 1.02728 | 28062 ft | 495 kts | 341° |
| 2026-05-04 07:01 | 45.20491 | 0.94097 | 30734 ft | 496 kts | 346° |
| 2026-05-04 07:01 | 45.23879 | 0.93181 | 31090 ft | 496 kts | 346° |
| 2026-05-04 07:02 | 45.27267 | 0.92275 | 31471 ft | 495 kts | 346° |
| 2026-05-04 07:02 | 45.30648 | 0.91345 | 31862 ft | 495 kts | 346° |
| 2026-05-04 07:02 | 45.34024 | 0.90379 | 32252 ft | 494 kts | 345° |
| 2026-05-04 07:02 | 45.37346 | 0.89393 | 32647 ft | 493 kts | 345° |
| 2026-05-04 07:03 | 45.40700 | 0.88374 | 33080 ft | 493 kts | 345° |
| 2026-05-04 07:03 | 45.44058 | 0.87347 | 33502 ft | 492 kts | 345° |
| 2026-05-04 07:03 | 45.47400 | 0.86326 | 33865 ft | 492 kts | 345° |
| 2026-05-04 07:03 | 45.50749 | 0.85313 | 33959 ft | 491 kts | 345° |
| 2026-05-04 07:04 | 45.57423 | 0.83313 | 33969 ft | 490 kts | 345° |
| 2026-05-04 07:04 | 45.64083 | 0.81312 | 33966 ft | 489 kts | 345° |
| 2026-05-04 07:05 | 45.70743 | 0.79304 | 33965 ft | 489 kts | 345° |
| 2026-05-04 07:05 | 45.77398 | 0.77288 | 33968 ft | 489 kts | 345° |
| 2026-05-04 07:06 | 45.87331 | 0.74273 | 33970 ft | 488 kts | 345° |
| 2026-05-04 07:07 | 45.93981 | 0.72248 | 33969 ft | 488 kts | 345° |
| 2026-05-04 07:09 | 46.19493 | 0.64431 | 33967 ft | 489 kts | 345° |
| 2026-05-04 07:09 | 46.26164 | 0.62378 | 33974 ft | 489 kts | 345° |
| 2026-05-04 07:10 | 46.32809 | 0.60329 | 33957 ft | 488 kts | 345° |
| 2026-05-04 07:12 | 46.59557 | 0.54310 | 33976 ft | 494 kts | 8° |
| 2026-05-04 07:12 | 46.66278 | 0.56441 | 33973 ft | 494 kts | 12° |
| 2026-05-04 07:13 | 46.72980 | 0.58648 | 33966 ft | 494 kts | 12° |
| 2026-05-04 07:13 | 46.79695 | 0.60840 | 33962 ft | 494 kts | 12° |
| 2026-05-04 07:14 | 46.96451 | 0.66412 | 33955 ft | 494 kts | 12° |
| 2026-05-04 07:15 | 47.03126 | 0.68624 | 33956 ft | 494 kts | 11° |
| 2026-05-04 07:15 | 47.09953 | 0.69706 | 33959 ft | 493 kts | 3° |
| 2026-05-04 07:16 | 47.16797 | 0.70418 | 33963 ft | 493 kts | 3° |
| 2026-05-04 07:16 | 47.23650 | 0.71137 | 33966 ft | 493 kts | 3° |
| 2026-05-04 07:17 | 47.30495 | 0.71859 | 33973 ft | 493 kts | 3° |
| 2026-05-04 07:17 | 47.37349 | 0.72577 | 33975 ft | 493 kts | 3° |
| 2026-05-04 07:18 | 47.44203 | 0.73308 | 33975 ft | 493 kts | 3° |
| 2026-05-04 07:18 | 47.51007 | 0.74649 | 33973 ft | 494 kts | 15° |
| 2026-05-04 07:19 | 47.57541 | 0.77756 | 33963 ft | 493 kts | 19° |
| 2026-05-04 07:19 | 47.64052 | 0.80971 | 33958 ft | 493 kts | 19° |
| 2026-05-04 07:20 | 47.70563 | 0.84205 | 33950 ft | 493 kts | 19° |
| 2026-05-04 07:20 | 47.77083 | 0.87437 | 33948 ft | 494 kts | 19° |
| 2026-05-04 07:22 | 48.03089 | 1.00504 | 33949 ft | 493 kts | 20° |
| 2026-05-04 07:23 | 48.09592 | 1.03818 | 33953 ft | 493 kts | 20° |
| 2026-05-04 07:23 | 48.16092 | 1.07139 | 33955 ft | 494 kts | 20° |
| 2026-05-04 07:24 | 48.22598 | 1.10462 | 33957 ft | 494 kts | 20° |
| 2026-05-04 07:24 | 48.29112 | 1.13790 | 33956 ft | 494 kts | 19° |
| 2026-05-04 07:26 | 48.55178 | 1.27146 | 33948 ft | 495 kts | 19° |
| 2026-05-04 07:27 | 48.61678 | 1.30454 | 33948 ft | 496 kts | 19° |
| 2026-05-04 07:27 | 48.68234 | 1.33732 | 33952 ft | 496 kts | 19° |
| 2026-05-04 07:28 | 48.74795 | 1.37032 | 33958 ft | 497 kts | 19° |
| 2026-05-04 07:28 | 48.81356 | 1.40363 | 33965 ft | 497 kts | 19° |
| 2026-05-04 07:29 | 48.87925 | 1.43709 | 33977 ft | 498 kts | 19° |
| 2026-05-04 07:29 | 48.94498 | 1.47071 | 33971 ft | 499 kts | 19° |
| 2026-05-04 07:30 | 49.01240 | 1.49472 | 33975 ft | 498 kts | 7° |
| 2026-05-04 07:30 | 49.08097 | 1.51046 | 33979 ft | 499 kts | 7° |
| 2026-05-04 07:31 | 49.14965 | 1.52669 | 33980 ft | 499 kts | 7° |
| 2026-05-04 07:33 | 49.35837 | 1.69440 | 33976 ft | 495 kts | 46° |
| 2026-05-04 07:33 | 49.38363 | 1.73140 | 33977 ft | 496 kts | 46° |
| 2026-05-04 07:33 | 49.43313 | 1.80409 | 33981 ft | 496 kts | 46° |
| 2026-05-04 07:34 | 49.48293 | 1.87752 | 33986 ft | 496 kts | 46° |
| 2026-05-04 07:34 | 49.53490 | 1.94734 | 33984 ft | 498 kts | 37° |
| 2026-05-04 07:35 | 49.59095 | 2.01028 | 33980 ft | 499 kts | 38° |
| 2026-05-04 07:35 | 49.64683 | 2.07386 | 33977 ft | 499 kts | 38° |
| 2026-05-04 07:36 | 49.70260 | 2.13749 | 33978 ft | 499 kts | 38° |
| 2026-05-04 07:38 | 49.92639 | 2.39345 | 33980 ft | 501 kts | 38° |
| 2026-05-04 07:38 | 49.98236 | 2.45813 | 33979 ft | 501 kts | 38° |
| 2026-05-04 07:39 | 50.03830 | 2.52288 | 33978 ft | 502 kts | 38° |
| 2026-05-04 07:39 | 50.09428 | 2.58787 | 33979 ft | 502 kts | 37° |
| 2026-05-04 07:40 | 50.14996 | 2.65252 | 33979 ft | 503 kts | 37° |
| 2026-05-04 07:40 | 50.20594 | 2.71785 | 33975 ft | 503 kts | 37° |
| 2026-05-04 07:41 | 50.26192 | 2.78354 | 33974 ft | 503 kts | 37° |
| 2026-05-04 07:41 | 50.31798 | 2.84937 | 33975 ft | 504 kts | 37° |
| 2026-05-04 07:42 | 50.37406 | 2.91533 | 33980 ft | 504 kts | 37° |
| 2026-05-04 07:42 | 50.43115 | 2.97889 | 33983 ft | 504 kts | 29° |
| 2026-05-04 07:43 | 50.49284 | 3.03093 | 33987 ft | 503 kts | 27° |
| 2026-05-04 07:43 | 50.55455 | 3.08293 | 33988 ft | 504 kts | 27° |
| 2026-05-04 07:44 | 50.61630 | 3.13517 | 33991 ft | 503 kts | 27° |
| 2026-05-04 07:44 | 50.67797 | 3.18765 | 33994 ft | 503 kts | 27° |
| 2026-05-04 07:45 | 50.73921 | 3.23978 | 33996 ft | 503 kts | 26° |
| 2026-05-04 07:45 | 50.80107 | 3.29120 | 33989 ft | 502 kts | 26° |
| 2026-05-04 07:46 | 50.86302 | 3.34227 | 33992 ft | 502 kts | 26° |
| 2026-05-04 07:46 | 50.92480 | 3.39383 | 33993 ft | 501 kts | 26° |
| 2026-05-04 07:47 | 50.98640 | 3.44582 | 33699 ft | 501 kts | 26° |
| 2026-05-04 07:47 | 51.01715 | 3.47191 | 33122 ft | 502 kts | 26° |
| 2026-05-04 07:49 | 51.24341 | 3.64667 | 25301 ft | 518 kts | 9° |
| 2026-05-04 07:49 | 51.27847 | 3.65443 | 24533 ft | 509 kts | 1° |
| 2026-05-04 07:49 | 51.30226 | 3.65522 | 24299 ft | 504 kts | 356° |
| 2026-05-04 07:50 | 51.34862 | 3.65365 | 24016 ft | 503 kts | 356° |
| 2026-05-04 07:50 | 51.38362 | 3.65273 | 23965 ft | 502 kts | 356° |
| 2026-05-04 07:50 | 51.41847 | 3.65189 | 23989 ft | 501 kts | 356° |
| 2026-05-04 07:50 | 51.45320 | 3.65102 | 23682 ft | 495 kts | 356° |
| 2026-05-04 07:51 | 51.48741 | 3.65010 | 22806 ft | 488 kts | 356° |
| 2026-05-04 07:51 | 51.51023 | 3.64945 | 22229 ft | 483 kts | 356° |
| 2026-05-04 07:51 | 51.54310 | 3.64849 | 21374 ft | 474 kts | 356° |
| 2026-05-04 07:51 | 51.57586 | 3.64747 | 20546 ft | 466 kts | 356° |
| 2026-05-04 07:52 | 51.60804 | 3.64645 | 19730 ft | 459 kts | 356° |
| 2026-05-04 07:52 | 51.63973 | 3.64547 | 18929 ft | 452 kts | 357° |
| 2026-05-04 07:52 | 51.67086 | 3.64941 | 18136 ft | 448 kts | 9° |
| 2026-05-04 07:52 | 51.70045 | 3.66410 | 17240 ft | 443 kts | 22° |
| 2026-05-04 07:53 | 51.72708 | 3.68859 | 16348 ft | 439 kts | 35° |
| 2026-05-04 07:54 | 51.84511 | 3.95918 | 11315 ft | 409 kts | 58° |
| 2026-05-04 07:55 | 51.86024 | 3.99776 | 10695 ft | 405 kts | 58° |
| 2026-05-04 07:55 | 51.87522 | 4.03610 | 10079 ft | 400 kts | 58° |
| 2026-05-04 07:55 | 51.89008 | 4.07394 | 9394 ft | 396 kts | 56° |
| 2026-05-04 07:55 | 51.90813 | 4.10717 | 8735 ft | 391 kts | 43° |
| 2026-05-04 07:56 | 51.92782 | 4.13698 | 8056 ft | 386 kts | 42° |
| 2026-05-04 07:56 | 51.94746 | 4.16642 | 7401 ft | 381 kts | 42° |
| 2026-05-04 07:56 | 51.96676 | 4.19520 | 7053 ft | 369 kts | 42° |
| 2026-05-04 07:56 | 51.98493 | 4.22236 | 6961 ft | 350 kts | 42° |
| 2026-05-04 07:57 | 52.00232 | 4.24841 | 6971 ft | 330 kts | 42° |
| 2026-05-04 07:57 | 52.01874 | 4.27307 | 6978 ft | 313 kts | 42° |
| 2026-05-04 07:57 | 52.03431 | 4.29654 | 6977 ft | 299 kts | 42° |
| 2026-05-04 07:57 | 52.04924 | 4.31908 | 6976 ft | 286 kts | 42° |
| 2026-05-04 07:58 | 52.06129 | 4.33729 | 6977 ft | 282 kts | 42° |
| 2026-05-04 07:58 | 52.07642 | 4.36012 | 6982 ft | 317 kts | 42° |
| 2026-05-04 07:58 | 52.09292 | 4.38502 | 6975 ft | 319 kts | 42° |
| 2026-05-04 07:58 | 52.10878 | 4.40899 | 6977 ft | 304 kts | 42° |
| 2026-05-04 07:59 | 52.12390 | 4.43192 | 6977 ft | 290 kts | 42° |
| 2026-05-04 07:59 | 52.13812 | 4.45349 | 6979 ft | 283 kts | 42° |
| 2026-05-04 07:59 | 52.15246 | 4.47526 | 6981 ft | 282 kts | 42° |
| 2026-05-04 07:59 | 52.16677 | 4.49706 | 6984 ft | 281 kts | 42° |
| 2026-05-04 08:00 | 52.18110 | 4.51885 | 6984 ft | 281 kts | 42° |
| 2026-05-04 08:00 | 52.19543 | 4.54062 | 6980 ft | 281 kts | 42° |
| 2026-05-04 08:00 | 52.20976 | 4.56243 | 6980 ft | 281 kts | 42° |
| 2026-05-04 08:02 | 52.30650 | 4.72220 | 5900 ft | 298 kts | 71° |
| 2026-05-04 08:02 | 52.30881 | 4.75542 | 5696 ft | 292 kts | 96° |
| 2026-05-04 08:02 | 52.30301 | 4.78606 | 5564 ft | 276 kts | 120° |
| 2026-05-04 08:03 | 52.29114 | 4.80930 | 5434 ft | 260 kts | 139° |
| 2026-05-04 08:03 | 52.27795 | 4.82843 | 5306 ft | 247 kts | 139° |
| 2026-05-04 08:03 | 52.26527 | 4.84673 | 5184 ft | 242 kts | 139° |
| 2026-05-04 08:03 | 52.25266 | 4.86486 | 5057 ft | 240 kts | 139° |
| 2026-05-04 08:04 | 52.23998 | 4.88244 | 4958 ft | 239 kts | 145° |
| 2026-05-04 08:04 | 52.22551 | 4.89535 | 4831 ft | 237 kts | 160° |
| 2026-05-04 08:04 | 52.20954 | 4.90190 | 4699 ft | 236 kts | 174° |
| 2026-05-04 08:04 | 52.19321 | 4.90204 | 4570 ft | 235 kts | 185° |
| 2026-05-04 08:05 | 52.17705 | 4.90043 | 4441 ft | 235 kts | 184° |
| 2026-05-04 08:05 | 52.16071 | 4.89890 | 4310 ft | 235 kts | 184° |
| 2026-05-04 08:05 | 52.14437 | 4.89742 | 4181 ft | 234 kts | 184° |
| 2026-05-04 08:05 | 52.12855 | 4.89236 | 4046 ft | 233 kts | 205° |
| 2026-05-04 08:06 | 52.11587 | 4.87656 | 3857 ft | 232 kts | 233° |
| 2026-05-04 08:06 | 52.10899 | 4.85276 | 3487 ft | 236 kts | 258° |
| 2026-05-04 08:06 | 52.10840 | 4.82590 | 3080 ft | 242 kts | 279° |
| 2026-05-04 08:06 | 52.11415 | 4.79992 | 2661 ft | 249 kts | 302° |
| 2026-05-04 08:08 | 52.21621 | 4.77047 | 1508 ft | 208 kts | 3° |
| 2026-05-04 08:08 | 52.23066 | 4.77180 | 1224 ft | 207 kts | 5° |
| 2026-05-04 08:10 | 52.30919 | 4.77836 | -3 ft | 41 kts | 333° |
| 2026-05-04 08:11 | 52.31099 | 4.77686 | -1 ft | 24 kts | 329° |
| 2026-05-04 08:11 | 52.31069 | 4.77344 | -1 ft | 23 kts | 275° |
| 2026-05-04 08:11 | 52.31059 | 4.77236 | -1 ft | 9 kts | 245° |
| 2026-05-04 08:12 | 52.31028 | 4.77122 | -1 ft | 12 kts | 215° |
| 2026-05-04 08:12 | 52.30994 | 4.77115 | -1 ft | 0 kts | 175° |